Etusivu
METAR-TAF:

METAR-TAF

Lentoasemat :

Pell City, Alabama, Yhdysvallat

Leveyspiiri: 33-33-32N, Pituuspiiri: 086-14-57W, korkeus merenpinnasta: 148 m

Tämänhetkinen sää

Tämä raportti tehtiin 5 minuuttia sitten, kello 11.55 UTC
Tuuli 5 kn etelästä
Lämpötila 19°C
Kosteus 94%
Ilmanpaine 1020 hPa
Näkyvyys: 16.1 km
Hajonneita pilviä 1300 ft:n korkeudessa
Hajonneita pilviä 2100 ft:n korkeudessa
Hajonneita pilviä 2700 ft:n korkeudessa

METAR: KPLR 281155Z AUTO 19005KT 10SM BKN013 BKN021 BKN027 19/18 A3012 RMK A01

Aika: 06:00 (12:00 UTC)


TAF: puuttuu

Säähavainnot ja -ennusteet yli 4000 lentoasemalta (METAR- ja TAF-raportit).

Käytössä olevat sääasemat on merkitty karttaan keltaisilla ja punaisilla pisteillä.

Aseta hiiri pisteen päälle nähdäksesi sääaseman nimen.

Klikkaa sitten nähdäksesi säähavainnot ja -ennusteet.

Kartan vaihtaminen: klikkaa mustalla rastilla varustettuja vihreitä pisteitä, niin voit zoomata sisään; viivalla varustettua vihreää pistettä, niin voit zoomata ulos tai vihreitä nuolia, niin pääset viereisille kartoille.


METAR-TAF: